sensor_id;sensor_type;location;lat;lon;timestamp;pressure;altitude;pressure_sealevel;temperature;humidity
72465;BME280;60471;52.150;4.508;2024-02-16T00:00:25;100587.22;;;13.60;100.00
72465;BME280;60471;52.150;4.508;2024-02-16T00:02:52;100582.78;;;13.61;100.00
72465;BME280;60471;52.150;4.508;2024-02-16T00:05:18;100576.03;;;13.55;100.00
72465;BME280;60471;52.150;4.508;2024-02-16T00:07:45;100574.22;;;13.70;100.00
72465;BME280;60471;52.150;4.508;2024-02-16T00:10:11;100574.41;;;13.67;100.00
72465;BME280;60471;52.150;4.508;2024-02-16T00:12:40;100571.41;;;13.59;100.00
72465;BME280;60471;52.150;4.508;2024-02-16T00:15:08;100575.28;;;13.68;100.00
72465;BME280;60471;52.150;4.508;2024-02-16T00:17:35;100581.22;;;13.71;100.00
72465;BME280;60471;52.150;4.508;2024-02-16T00:20:03;100577.56;;;13.59;100.00
72465;BME280;60471;52.150;4.508;2024-02-16T00:22:33;100574.81;;;13.61;100.00
72465;BME280;60471;52.150;4.508;2024-02-16T00:25:00;100580.75;;;13.64;100.00
72465;BME280;60471;52.150;4.508;2024-02-16T00:27:26;100579.66;;;13.54;100.00
72465;BME280;60471;52.150;4.508;2024-02-16T00:29:53;100567.19;;;13.42;100.00
72465;BME280;60471;52.150;4.508;2024-02-16T00:32:19;100573.50;;;13.54;100.00
72465;BME280;60471;52.150;4.508;2024-02-16T00:34:46;100568.13;;;13.41;100.00
72465;BME280;60471;52.150;4.508;2024-02-16T00:37:12;100574.44;;;13.53;100.00
72465;BME280;60471;52.150;4.508;2024-02-16T00:39:38;100574.56;;;13.51;100.00
72465;BME280;60471;52.150;4.508;2024-02-16T00:42:09;100561.88;;;13.42;100.00
72465;BME280;60471;52.150;4.508;2024-02-16T00:44:35;100572.00;;;13.50;100.00
72465;BME280;60471;52.150;4.508;2024-02-16T00:47:01;100563.59;;;13.43;100.00
72465;BME280;60471;52.150;4.508;2024-02-16T00:49:27;100564.16;;;13.48;100.00
72465;BME280;60471;52.150;4.508;2024-02-16T00:51:54;100568.03;;;13.57;100.00
72465;BME280;60471;52.150;4.508;2024-02-16T00:54:20;100561.31;;;13.51;100.00
72465;BME280;60471;52.150;4.508;2024-02-16T00:56:46;100561.09;;;13.54;100.00
72465;BME280;60471;52.150;4.508;2024-02-16T00:59:13;100552.84;;;13.59;100.00
72465;BME280;60471;52.150;4.508;2024-02-16T01:01:39;100549.09;;;13.49;100.00
72465;BME280;60471;52.150;4.508;2024-02-16T01:04:05;100550.16;;;13.46;100.00
72465;BME280;60471;52.150;4.508;2024-02-16T01:06:33;100556.78;;;13.39;100.00
72465;BME280;60471;52.150;4.508;2024-02-16T01:08:59;100547.03;;;13.40;100.00
72465;BME280;60471;52.150;4.508;2024-02-16T01:11:25;100553.56;;;13.48;100.00
72465;BME280;60471;52.150;4.508;2024-02-16T01:13:52;100551.59;;;13.64;100.00
72465;BME280;60471;52.150;4.508;2024-02-16T01:16:18;100565.44;;;13.55;100.00
72465;BME280;60471;52.150;4.508;2024-02-16T01:18:44;100563.09;;;13.51;100.00
72465;BME280;60471;52.150;4.508;2024-02-16T01:21:11;100562.47;;;13.47;100.00
72465;BME280;60471;52.150;4.508;2024-02-16T01:23:37;100544.09;;;13.44;100.00
72465;BME280;60471;52.150;4.508;2024-02-16T01:26:03;100540.09;;;13.51;100.00
72465;BME280;60471;52.150;4.508;2024-02-16T01:28:30;100535.31;;;13.56;100.00
72465;BME280;60471;52.150;4.508;2024-02-16T01:30:56;100532.53;;;13.45;100.00
72465;BME280;60471;52.150;4.508;2024-02-16T01:33:22;100536.50;;;13.52;100.00
72465;BME280;60471;52.150;4.508;2024-02-16T01:35:48;100530.56;;;13.49;100.00
72465;BME280;60471;52.150;4.508;2024-02-16T01:38:14;100533.19;;;13.49;100.00
72465;BME280;60471;52.150;4.508;2024-02-16T01:40:41;100524.56;;;13.45;100.00
72465;BME280;60471;52.150;4.508;2024-02-16T01:43:07;100517.78;;;13.41;100.00
72465;BME280;60471;52.150;4.508;2024-02-16T01:45:33;100544.59;;;13.37;100.00
72465;BME280;60471;52.150;4.508;2024-02-16T01:47:59;100538.72;;;13.31;100.00
72465;BME280;60471;52.150;4.508;2024-02-16T01:50:26;100540.16;;;13.23;100.00
72465;BME280;60471;52.150;4.508;2024-02-16T01:52:55;100540.94;;;13.25;100.00
72465;BME280;60471;52.150;4.508;2024-02-16T01:55:23;100533.69;;;13.13;100.00
72465;BME280;60471;52.150;4.508;2024-02-16T01:57:49;100527.75;;;13.09;100.00
72465;BME280;60471;52.150;4.508;2024-02-16T02:00:16;100514.13;;;13.15;100.00
72465;BME280;60471;52.150;4.508;2024-02-16T02:02:45;100511.69;;;13.26;100.00
72465;BME280;60471;52.150;4.508;2024-02-16T02:05:12;100521.13;;;13.16;100.00
72465;BME280;60471;52.150;4.508;2024-02-16T02:07:41;100521.41;;;13.12;100.00
72465;BME280;60471;52.150;4.508;2024-02-16T02:10:09;100521.31;;;13.13;100.00
72465;BME280;60471;52.150;4.508;2024-02-16T02:12:39;100521.03;;;13.18;100.00
72465;BME280;60471;52.150;4.508;2024-02-16T02:15:06;100513.94;;;13.18;100.00
72465;BME280;60471;52.150;4.508;2024-02-16T02:17:32;100515.38;;;13.10;100.00
72465;BME280;60471;52.150;4.508;2024-02-16T02:19:58;100531.25;;;13.10;100.00
72465;BME280;60471;52.150;4.508;2024-02-16T02:22:24;100539.69;;;13.02;100.00
72465;BME280;60471;52.150;4.508;2024-02-16T02:24:52;100522.00;;;13.02;100.00
72465;BME280;60471;52.150;4.508;2024-02-16T02:27:21;100522.97;;;12.87;100.00
72465;BME280;60471;52.150;4.508;2024-02-16T02:29:47;100524.47;;;12.91;100.00
72465;BME280;60471;52.150;4.508;2024-02-16T02:32:14;100519.94;;;12.93;100.00
72465;BME280;60471;52.150;4.508;2024-02-16T02:34:40;100517.75;;;12.86;100.00
72465;BME280;60471;52.150;4.508;2024-02-16T02:37:06;100511.41;;;12.88;100.00
72465;BME280;60471;52.150;4.508;2024-02-16T02:39:32;100516.16;;;12.83;100.00
72465;BME280;60471;52.150;4.508;2024-02-16T02:41:59;100513.63;;;12.82;100.00
72465;BME280;60471;52.150;4.508;2024-02-16T02:44:25;100510.47;;;12.75;100.00
72465;BME280;60471;52.150;4.508;2024-02-16T02:46:52;100510.69;;;12.72;100.00
72465;BME280;60471;52.150;4.508;2024-02-16T02:49:19;100505.56;;;12.69;100.00
72465;BME280;60471;52.150;4.508;2024-02-16T02:51:45;100501.91;;;12.71;100.00
72465;BME280;60471;52.150;4.508;2024-02-16T02:54:11;100505.00;;;12.78;100.00
72465;BME280;60471;52.150;4.508;2024-02-16T02:56:37;100509.25;;;12.66;100.00
72465;BME280;60471;52.150;4.508;2024-02-16T02:59:03;100503.75;;;12.69;100.00
72465;BME280;60471;52.150;4.508;2024-02-16T03:01:31;100501.69;;;12.74;100.00
72465;BME280;60471;52.150;4.508;2024-02-16T03:03:58;100503.69;;;12.71;100.00
72465;BME280;60471;52.150;4.508;2024-02-16T03:06:25;100498.19;;;12.74;100.00
72465;BME280;60471;52.150;4.508;2024-02-16T03:08:52;100488.75;;;12.70;100.00
72465;BME280;60471;52.150;4.508;2024-02-16T03:11:18;100493.75;;;12.74;100.00
72465;BME280;60471;52.150;4.508;2024-02-16T03:13:44;100479.66;;;12.74;100.00
72465;BME280;60471;52.150;4.508;2024-02-16T03:16:11;100494.03;;;12.84;100.00
72465;BME280;60471;52.150;4.508;2024-02-16T03:18:37;100483.13;;;12.89;100.00
72465;BME280;60471;52.150;4.508;2024-02-16T03:21:04;100485.50;;;12.93;100.00
72465;BME280;60471;52.150;4.508;2024-02-16T03:23:30;100469.03;;;13.02;100.00
72465;BME280;60471;52.150;4.508;2024-02-16T03:25:56;100475.94;;;13.05;100.00
72465;BME280;60471;52.150;4.508;2024-02-16T03:28:23;100477.00;;;13.02;100.00
72465;BME280;60471;52.150;4.508;2024-02-16T03:30:49;100480.50;;;13.03;100.00
72465;BME280;60471;52.150;4.508;2024-02-16T03:33:15;100481.22;;;13.05;100.00
72465;BME280;60471;52.150;4.508;2024-02-16T03:35:41;100485.47;;;13.07;100.00
72465;BME280;60471;52.150;4.508;2024-02-16T03:38:07;100496.53;;;13.00;100.00
72465;BME280;60471;52.150;4.508;2024-02-16T03:40:34;100494.00;;;12.98;100.00
72465;BME280;60471;52.150;4.508;2024-02-16T03:43:00;100486.06;;;12.98;100.00
72465;BME280;60471;52.150;4.508;2024-02-16T03:45:26;100477.16;;;12.99;100.00
72465;BME280;60471;52.150;4.508;2024-02-16T03:47:55;100477.75;;;12.90;100.00
72465;BME280;60471;52.150;4.508;2024-02-16T03:50:21;100471.88;;;12.99;100.00
72465;BME280;60471;52.150;4.508;2024-02-16T03:52:48;100468.72;;;13.07;100.00
72465;BME280;60471;52.150;4.508;2024-02-16T03:55:14;100460.19;;;13.16;100.00
72465;BME280;60471;52.150;4.508;2024-02-16T03:57:40;100462.00;;;13.16;100.00
72465;BME280;60471;52.150;4.508;2024-02-16T04:00:08;100460.19;;;13.16;100.00
72465;BME280;60471;52.150;4.508;2024-02-16T04:02:34;100465.25;;;13.06;100.00
72465;BME280;60471;52.150;4.508;2024-02-16T04:05:02;100465.50;;;13.02;100.00
72465;BME280;60471;52.150;4.508;2024-02-16T04:07:29;100472.72;;;13.00;100.00
72465;BME280;60471;52.150;4.508;2024-02-16T04:09:55;100483.63;;;12.95;100.00
72465;BME280;60471;52.150;4.508;2024-02-16T04:12:22;100479.38;;;12.93;100.00
72465;BME280;60471;52.150;4.508;2024-02-16T04:14:48;100483.34;;;12.86;100.00
72465;BME280;60471;52.150;4.508;2024-02-16T04:17:14;100488.84;;;12.83;100.00
72465;BME280;60471;52.150;4.508;2024-02-16T04:19:40;100489.28;;;12.89;100.00
72465;BME280;60471;52.150;4.508;2024-02-16T04:22:07;100488.16;;;12.93;100.00
72465;BME280;60471;52.150;4.508;2024-02-16T04:24:33;100486.16;;;12.97;100.00
72465;BME280;60471;52.150;4.508;2024-02-16T04:26:59;100488.81;;;12.97;100.00
72465;BME280;60471;52.150;4.508;2024-02-16T04:29:25;100489.00;;;12.94;100.00
72465;BME280;60471;52.150;4.508;2024-02-16T04:31:51;100480.13;;;12.95;100.00
72465;BME280;60471;52.150;4.508;2024-02-16T04:34:18;100477.44;;;13.09;100.00
72465;BME280;60471;52.150;4.508;2024-02-16T04:36:44;100488.13;;;13.07;100.00
72465;BME280;60471;52.150;4.508;2024-02-16T04:39:11;100499.50;;;12.95;100.00
72465;BME280;60471;52.150;4.508;2024-02-16T04:41:38;100498.75;;;12.93;100.00
72465;BME280;60471;52.150;4.508;2024-02-16T04:44:04;100487.75;;;12.99;100.00
72465;BME280;60471;52.150;4.508;2024-02-16T04:46:30;100483.50;;;12.97;100.00
72465;BME280;60471;52.150;4.508;2024-02-16T04:48:56;100479.38;;;12.93;100.00
72465;BME280;60471;52.150;4.508;2024-02-16T04:51:22;100481.44;;;12.88;100.00
72465;BME280;60471;52.150;4.508;2024-02-16T04:53:49;100481.34;;;12.89;100.00
72465;BME280;60471;52.150;4.508;2024-02-16T04:56:15;100489.38;;;12.88;100.00
72465;BME280;60471;52.150;4.508;2024-02-16T04:58:42;100490.91;;;12.92;100.00
72465;BME280;60471;52.150;4.508;2024-02-16T05:01:08;100498.59;;;12.82;100.00
72465;BME280;60471;52.150;4.508;2024-02-16T05:03:34;100484.38;;;12.83;100.00
72465;BME280;60471;52.150;4.508;2024-02-16T05:06:01;100486.72;;;12.88;100.00
72465;BME280;60471;52.150;4.508;2024-02-16T05:08:27;100482.88;;;12.79;100.00
72465;BME280;60471;52.150;4.508;2024-02-16T05:10:53;100484.56;;;12.80;100.00
72465;BME280;60471;52.150;4.508;2024-02-16T05:13:19;100497.16;;;12.76;100.00
72465;BME280;60471;52.150;4.508;2024-02-16T05:15:45;100492.91;;;12.74;100.00
72465;BME280;60471;52.150;4.508;2024-02-16T05:18:14;100504.53;;;12.71;100.00
72465;BME280;60471;52.150;4.508;2024-02-16T05:20:40;100504.72;;;12.83;100.00
72465;BME280;60471;52.150;4.508;2024-02-16T05:23:07;100497.03;;;12.78;100.00
72465;BME280;60471;52.150;4.508;2024-02-16T05:25:33;100475.50;;;12.84;100.00
72465;BME280;60471;52.150;4.508;2024-02-16T05:27:59;100483.34;;;12.86;100.00
72465;BME280;60471;52.150;4.508;2024-02-16T05:30:27;100486.72;;;12.88;100.00
72465;BME280;60471;52.150;4.508;2024-02-16T05:32:54;100494.88;;;12.85;100.00
72465;BME280;60471;52.150;4.508;2024-02-16T05:35:24;100496.47;;;12.87;100.00
72465;BME280;60471;52.150;4.508;2024-02-16T05:37:54;100494.31;;;12.94;100.00
72465;BME280;60471;52.150;4.508;2024-02-16T05:40:21;100504.31;;;12.89;100.00
72465;BME280;60471;52.150;4.508;2024-02-16T05:42:53;100509.81;;;12.86;100.00
72465;BME280;60471;52.150;4.508;2024-02-16T05:45:20;100503.38;;;12.90;100.00
72465;BME280;60471;52.150;4.508;2024-02-16T05:47:50;100517.56;;;12.89;100.00
72465;BME280;60471;52.150;4.508;2024-02-16T05:50:16;100499.88;;;13.03;100.00
72465;BME280;60471;52.150;4.508;2024-02-16T05:52:43;100503.06;;;13.09;100.00
72465;BME280;60471;52.150;4.508;2024-02-16T05:55:10;100511.88;;;13.09;100.00
72465;BME280;60471;52.150;4.508;2024-02-16T05:57:39;100518.47;;;13.02;100.00
72465;BME280;60471;52.150;4.508;2024-02-16T06:00:07;100514.13;;;13.01;100.00
72465;BME280;60471;52.150;4.508;2024-02-16T06:02:34;100508.84;;;13.01;100.00
72465;BME280;60471;52.150;4.508;2024-02-16T06:05:02;100505.81;;;13.07;100.00
72465;BME280;60471;52.150;4.508;2024-02-16T06:07:29;100507.53;;;13.08;100.00
72465;BME280;60471;52.150;4.508;2024-02-16T06:09:56;100501.06;;;13.12;100.00
72465;BME280;60471;52.150;4.508;2024-02-16T06:12:23;100513.00;;;13.19;100.00
72465;BME280;60471;52.150;4.508;2024-02-16T06:14:50;100516.50;;;13.20;100.00
72465;BME280;60471;52.150;4.508;2024-02-16T06:17:16;100521.72;;;13.07;100.00
72465;BME280;60471;52.150;4.508;2024-02-16T06:19:43;100522.19;;;13.14;100.00
72465;BME280;60471;52.150;4.508;2024-02-16T06:22:09;100520.19;;;13.17;100.00
72465;BME280;60471;52.150;4.508;2024-02-16T06:24:36;100524.25;;;13.23;100.00
72465;BME280;60471;52.150;4.508;2024-02-16T06:27:03;100524.94;;;13.26;100.00
72465;BME280;60471;52.150;4.508;2024-02-16T06:29:30;100523.88;;;13.15;100.00
72465;BME280;60471;52.150;4.508;2024-02-16T06:31:56;100523.78;;;13.16;100.00
72465;BME280;60471;52.150;4.508;2024-02-16T06:34:23;100526.53;;;13.15;100.00
72465;BME280;60471;52.150;4.508;2024-02-16T06:36:49;100542.69;;;13.10;100.00
72465;BME280;60471;52.150;4.508;2024-02-16T06:39:16;100539.19;;;13.10;100.00
72465;BME280;60471;52.150;4.508;2024-02-16T06:41:45;100549.06;;;13.22;100.00
72465;BME280;60471;52.150;4.508;2024-02-16T06:44:13;100540.81;;;13.12;100.00
72465;BME280;60471;52.150;4.508;2024-02-16T06:46:43;100549.31;;;13.17;100.00
72465;BME280;60471;52.150;4.508;2024-02-16T06:49:12;100537.78;;;13.18;100.00
72465;BME280;60471;52.150;4.508;2024-02-16T06:51:38;100542.63;;;13.26;100.00
72465;BME280;60471;52.150;4.508;2024-02-16T06:54:04;100543.44;;;13.12;100.00
72465;BME280;60471;52.150;4.508;2024-02-16T06:56:31;100550.16;;;13.32;100.00
72465;BME280;60471;52.150;4.508;2024-02-16T06:58:57;100559.06;;;13.17;100.00
72465;BME280;60471;52.150;4.508;2024-02-16T07:01:23;100558.38;;;13.13;100.00
72465;BME280;60471;52.150;4.508;2024-02-16T07:03:51;100566.84;;;13.20;100.00
72465;BME280;60471;52.150;4.508;2024-02-16T07:06:18;100550.28;;;13.30;100.00
72465;BME280;60471;52.150;4.508;2024-02-16T07:08:44;100565.78;;;13.22;100.00
72465;BME280;60471;52.150;4.508;2024-02-16T07:11:10;100568.59;;;13.48;100.00
72465;BME280;60471;52.150;4.508;2024-02-16T07:13:37;100569.00;;;13.42;100.00
72465;BME280;60471;52.150;4.508;2024-02-16T07:16:04;100556.78;;;13.39;100.00
72465;BME280;60471;52.150;4.508;2024-02-16T07:18:33;100580.44;;;13.42;100.00
72465;BME280;60471;52.150;4.508;2024-02-16T07:20:59;100583.78;;;13.31;100.00
72465;BME280;60471;52.150;4.508;2024-02-16T07:23:26;100589.81;;;13.33;100.00
72465;BME280;60471;52.150;4.508;2024-02-16T07:25:52;100595.53;;;13.27;100.00
72465;BME280;60471;52.150;4.508;2024-02-16T07:28:22;100610.28;;;13.31;100.00
72465;BME280;60471;52.150;4.508;2024-02-16T07:30:49;100607.59;;;13.46;100.00
72465;BME280;60471;52.150;4.508;2024-02-16T07:33:17;100612.81;;;13.47;100.00
72465;BME280;60471;52.150;4.508;2024-02-16T07:35:43;100627.31;;;13.42;100.00
72465;BME280;60471;52.150;4.508;2024-02-16T07:38:12;100617.47;;;13.29;100.00
72465;BME280;60471;52.150;4.508;2024-02-16T07:40:38;100634.59;;;13.38;100.00
72465;BME280;60471;52.150;4.508;2024-02-16T07:43:05;100635.38;;;13.67;100.00
72465;BME280;60471;52.150;4.508;2024-02-16T07:45:31;100631.91;;;13.52;100.00
72465;BME280;60471;52.150;4.508;2024-02-16T07:47:57;100638.63;;;13.72;100.00
72465;BME280;60471;52.150;4.508;2024-02-16T07:50:24;100630.59;;;13.59;100.00
72465;BME280;60471;52.150;4.508;2024-02-16T07:52:50;100648.75;;;13.66;100.00
72465;BME280;60471;52.150;4.508;2024-02-16T07:55:17;100647.91;;;13.65;100.00
72465;BME280;60471;52.150;4.508;2024-02-16T07:57:44;100660.03;;;13.69;100.00
72465;BME280;60471;52.150;4.508;2024-02-16T08:00:11;100669.28;;;13.76;100.00
72465;BME280;60471;52.150;4.508;2024-02-16T08:02:37;100671.38;;;13.71;100.00
72465;BME280;60471;52.150;4.508;2024-02-16T08:05:06;100658.13;;;13.98;100.00
72465;BME280;60471;52.150;4.508;2024-02-16T08:07:34;100668.00;;;13.96;100.00
72465;BME280;60471;52.150;4.508;2024-02-16T08:10:00;100677.97;;;13.92;100.00
72465;BME280;60471;52.150;4.508;2024-02-16T08:12:26;100662.44;;;13.86;100.00
72465;BME280;60471;52.150;4.508;2024-02-16T08:14:53;100656.50;;;13.83;100.00
72465;BME280;60471;52.150;4.508;2024-02-16T08:17:20;100667.03;;;13.70;100.00
72465;BME280;60471;52.150;4.508;2024-02-16T08:19:52;100676.03;;;13.68;100.00
72465;BME280;60471;52.150;4.508;2024-02-16T08:22:20;100669.28;;;13.76;100.00
72465;BME280;60471;52.150;4.508;2024-02-16T08:24:47;100675.69;;;13.86;100.00
72465;BME280;60471;52.150;4.508;2024-02-16T08:27:16;100676.97;;;14.08;100.00
72465;BME280;60471;52.150;4.508;2024-02-16T08:29:42;100689.44;;;13.93;100.00
72465;BME280;60471;52.150;4.508;2024-02-16T08:32:09;100705.88;;;13.98;100.00
72465;BME280;60471;52.150;4.508;2024-02-16T08:34:37;100695.84;;;13.89;100.00
72465;BME280;60471;52.150;4.508;2024-02-16T08:37:05;100723.50;;;13.99;100.00
72465;BME280;60471;52.150;4.508;2024-02-16T08:39:33;100703.69;;;14.05;100.00
72465;BME280;60471;52.150;4.508;2024-02-16T08:42:00;100715.16;;;14.05;100.00
72465;BME280;60471;52.150;4.508;2024-02-16T08:44:27;100714.53;;;13.87;100.00
72465;BME280;60471;52.150;4.508;2024-02-16T08:46:53;100723.94;;;13.79;100.00
72465;BME280;60471;52.150;4.508;2024-02-16T08:49:20;100732.06;;;13.76;100.00
72465;BME280;60471;52.150;4.508;2024-02-16T08:51:47;100721.75;;;13.71;100.00
72465;BME280;60471;52.150;4.508;2024-02-16T08:54:14;100741.34;;;13.83;100.00
72465;BME280;60471;52.150;4.508;2024-02-16T08:56:40;100735.84;;;13.86;100.00
72465;BME280;60471;52.150;4.508;2024-02-16T08:59:06;100737.56;;;13.87;100.00
72465;BME280;60471;52.150;4.508;2024-02-16T09:01:34;100771.09;;;13.59;100.00
72465;BME280;60471;52.150;4.508;2024-02-16T09:04:01;100771.28;;;13.56;100.00
72465;BME280;60471;52.150;4.508;2024-02-16T09:06:28;100762.09;;;13.62;100.00
72465;BME280;60471;52.150;4.508;2024-02-16T09:08:55;100784.25;;;13.47;100.00
72465;BME280;60471;52.150;4.508;2024-02-16T09:11:23;100783.78;;;13.40;100.00
72465;BME280;60471;52.150;4.508;2024-02-16T09:13:50;100765.72;;;13.47;100.00
72465;BME280;60471;52.150;4.508;2024-02-16T09:16:17;100776.78;;;13.39;100.00
72465;BME280;60471;52.150;4.508;2024-02-16T09:18:43;100781.56;;;13.32;100.00
72465;BME280;60471;52.150;4.508;2024-02-16T09:21:09;100781.13;;;13.40;100.00
72465;BME280;60471;52.150;4.508;2024-02-16T09:23:36;100781.97;;;13.41;100.00
72465;BME280;60471;52.150;4.508;2024-02-16T09:26:03;100793.72;;;13.37;100.00
72465;BME280;60471;52.150;4.508;2024-02-16T09:28:30;100798.22;;;13.20;100.00
72465;BME280;60471;52.150;4.508;2024-02-16T09:30:57;100816.47;;;12.95;100.00
72465;BME280;60471;52.150;4.508;2024-02-16T09:33:24;100817.97;;;12.99;100.00
72465;BME280;60471;52.150;4.508;2024-02-16T09:35:52;100817.41;;;13.24;100.00
72465;BME280;60471;52.150;4.508;2024-02-16T09:38:19;100830.81;;;12.91;100.00
72465;BME280;60471;52.150;4.508;2024-02-16T09:40:46;100819.13;;;12.95;100.00
72465;BME280;60471;52.150;4.508;2024-02-16T09:43:29;100827.28;;;12.60;100.00
72465;BME280;60471;52.150;4.508;2024-02-16T09:45:58;100844.50;;;12.67;100.00
72465;BME280;60471;52.150;4.508;2024-02-16T09:48:27;100844.16;;;12.58;100.00
72465;BME280;60471;52.150;4.508;2024-02-16T09:50:55;100850.16;;;12.61;100.00
72465;BME280;60471;52.150;4.508;2024-02-16T09:53:26;100855.88;;;12.69;100.00
72465;BME280;60471;52.150;4.508;2024-02-16T09:55:54;100867.22;;;12.56;100.00
72465;BME280;60471;52.150;4.508;2024-02-16T09:58:20;100877.16;;;12.52;100.00
72465;BME280;60471;52.150;4.508;2024-02-16T10:01:07;100887.28;;;12.44;100.00
72465;BME280;60471;52.150;4.508;2024-02-16T10:03:34;100878.31;;;12.46;100.00
72465;BME280;60471;52.150;4.508;2024-02-16T10:06:07;100889.19;;;12.42;100.00
72465;BME280;60471;52.150;4.508;2024-02-16T10:08:47;100892.56;;;12.28;100.00
72465;BME280;60471;52.150;4.508;2024-02-16T10:11:19;100884.81;;;12.57;100.00
72465;BME280;60471;52.150;4.508;2024-02-16T10:14:01;100900.19;;;12.50;100.00
72465;BME280;60471;52.150;4.508;2024-02-16T10:16:29;100909.94;;;12.50;100.00
72465;BME280;60471;52.150;4.508;2024-02-16T10:19:06;100893.78;;;12.54;100.00
72465;BME280;60471;52.150;4.508;2024-02-16T10:21:33;100912.31;;;12.38;100.00
72465;BME280;60471;52.150;4.508;2024-02-16T10:24:11;100922.44;;;12.30;100.00
72465;BME280;60471;52.150;4.508;2024-02-16T10:26:40;100933.81;;;12.48;100.00
72465;BME280;60471;52.150;4.508;2024-02-16T10:29:10;100930.31;;;12.32;100.00
72465;BME280;60471;52.150;4.508;2024-02-16T10:31:40;100939.25;;;12.29;100.00
72465;BME280;60471;52.150;4.508;2024-02-16T10:34:06;100938.34;;;12.46;100.00
72465;BME280;60471;52.150;4.508;2024-02-16T10:36:36;100972.38;;;12.36;100.00
72465;BME280;60471;52.150;4.508;2024-02-16T10:39:05;100965.84;;;12.43;100.00
72465;BME280;60471;52.150;4.508;2024-02-16T10:41:35;100974.16;;;12.36;100.00
72465;BME280;60471;52.150;4.508;2024-02-16T10:44:04;100969.25;;;12.12;100.00
72465;BME280;60471;52.150;4.508;2024-02-16T10:46:32;100957.78;;;12.29;100.00
72465;BME280;60471;52.150;4.508;2024-02-16T10:48:59;100970.09;;;12.46;100.00
72465;BME280;60471;52.150;4.508;2024-02-16T10:51:42;100970.28;;;12.59;100.00
72465;BME280;60471;52.150;4.508;2024-02-16T10:54:13;100982.63;;;12.60;100.00
72465;BME280;60471;52.150;4.508;2024-02-16T10:56:43;100989.19;;;12.68;100.00
72465;BME280;60471;52.150;4.508;2024-02-16T10:59:11;100993.66;;;12.99;100.00
72465;BME280;60471;52.150;4.508;2024-02-16T11:01:41;100992.72;;;12.85;100.00
72465;BME280;60471;52.150;4.508;2024-02-16T11:04:13;101000.16;;;12.94;100.00
72465;BME280;60471;52.150;4.508;2024-02-16T11:07:00;101003.53;;;12.64;100.00
72465;BME280;60471;52.150;4.508;2024-02-16T11:09:33;101028.88;;;12.53;100.00
72465;BME280;60471;52.150;4.508;2024-02-16T11:12:02;101034.13;;;12.19;100.00
72465;BME280;60471;52.150;4.508;2024-02-16T11:17:13;101045.94;;;12.30;100.00
72465;BME280;60471;52.150;4.508;2024-02-16T11:19:41;101064.63;;;12.09;100.00
72465;BME280;60471;52.150;4.508;2024-02-16T11:22:09;101043.00;;;11.84;100.00
72465;BME280;60471;52.150;4.508;2024-02-16T11:24:43;101048.75;;;12.09;100.00
72465;BME280;60471;52.150;4.508;2024-02-16T11:27:10;101045.69;;;12.52;100.00
72465;BME280;60471;52.150;4.508;2024-02-16T11:29:38;101051.38;;;12.77;100.00
72465;BME280;60471;52.150;4.508;2024-02-16T11:32:06;101061.88;;;12.63;100.00
72465;BME280;60471;52.150;4.508;2024-02-16T11:34:34;101058.06;;;12.51;100.00
72465;BME280;60471;52.150;4.508;2024-02-16T11:37:03;101064.44;;;12.80;100.00
72465;BME280;60471;52.150;4.508;2024-02-16T11:39:33;101064.31;;;12.83;100.00
72465;BME280;60471;52.150;4.508;2024-02-16T11:42:04;101068.38;;;12.73;100.00
72465;BME280;60471;52.150;4.508;2024-02-16T11:44:36;101078.13;;;12.72;100.00
72465;BME280;60471;52.150;4.508;2024-02-16T11:47:07;101090.03;;;12.81;100.00
72465;BME280;60471;52.150;4.508;2024-02-16T11:49:40;101097.72;;;12.86;100.00
72465;BME280;60471;52.150;4.508;2024-02-16T11:52:07;101097.97;;;13.46;100.00
72465;BME280;60471;52.150;4.508;2024-02-16T11:54:34;101087.38;;;13.61;100.00
72465;BME280;60471;52.150;4.508;2024-02-16T11:57:01;101123.03;;;13.56;100.00
72465;BME280;60471;52.150;4.508;2024-02-16T11:59:28;101105.94;;;13.46;100.00
72465;BME280;60471;52.150;4.508;2024-02-16T12:01:58;101111.31;;;13.44;100.00
72465;BME280;60471;52.150;4.508;2024-02-16T12:04:26;101116.97;;;13.05;100.00
72465;BME280;60471;52.150;4.508;2024-02-16T12:07:01;101101.94;;;12.72;100.00
72465;BME280;60471;52.150;4.508;2024-02-16T12:09:28;101113.78;;;12.98;100.00
72465;BME280;60471;52.150;4.508;2024-02-16T12:11:57;101119.88;;;13.00;100.00
72465;BME280;60471;52.150;4.508;2024-02-16T12:14:24;101113.28;;;13.41;100.00
72465;BME280;60471;52.150;4.508;2024-02-16T12:16:54;101124.66;;;13.43;100.00
72465;BME280;60471;52.150;4.508;2024-02-16T12:19:22;101128.88;;;13.62;100.00
72465;BME280;60471;52.150;4.508;2024-02-16T12:21:52;101134.22;;;13.45;100.00
72465;BME280;60471;52.150;4.508;2024-02-16T12:24:22;101136.66;;;13.50;100.00
72465;BME280;60471;52.150;4.508;2024-02-16T12:26:49;101141.19;;;13.15;100.00
72465;BME280;60471;52.150;4.508;2024-02-16T12:29:15;101150.78;;;13.00;100.00
72465;BME280;60471;52.150;4.508;2024-02-16T12:31:44;101153.09;;;12.73;100.00
72465;BME280;60471;52.150;4.508;2024-02-16T12:34:11;101152.34;;;12.71;100.00
72465;BME280;60471;52.150;4.508;2024-02-16T12:36:42;101149.22;;;12.63;100.00
72465;BME280;60471;52.150;4.508;2024-02-16T12:39:08;101161.81;;;12.92;100.00
72465;BME280;60471;52.150;4.508;2024-02-16T12:41:38;101159.44;;;12.70;100.00
72465;BME280;60471;52.150;4.508;2024-02-16T12:44:05;101166.41;;;12.89;100.00